sensor_id;sensor_type;location;lat;lon;timestamp;P1;durP1;ratioP1;P2;durP2;ratioP2
63782;SDS011;49925;52.522;5.732;2022-08-11T02:02:52;12.10;;;6.75;;
63782;SDS011;49925;52.522;5.732;2022-08-11T02:05:51;13.02;;;6.88;;
63782;SDS011;49925;52.522;5.732;2022-08-11T02:12:30;16.92;;;7.32;;
63782;SDS011;49925;52.522;5.732;2022-08-11T03:48:04;13.20;;;7.68;;
63782;SDS011;49925;52.522;5.732;2022-08-11T03:53:48;18.75;;;9.00;;
63782;SDS011;49925;52.522;5.732;2022-08-11T03:56:36;13.38;;;8.43;;
63782;SDS011;49925;52.522;5.732;2022-08-11T04:08:53;14.60;;;8.23;;
63782;SDS011;49925;52.522;5.732;2022-08-11T04:18:59;20.48;;;8.13;;
63782;SDS011;49925;52.522;5.732;2022-08-11T04:24:57;16.60;;;8.50;;
63782;SDS011;49925;52.522;5.732;2022-08-11T04:27:58;16.73;;;8.60;;
63782;SDS011;49925;52.522;5.732;2022-08-11T04:37:06;17.90;;;8.90;;
63782;SDS011;49925;52.522;5.732;2022-08-11T05:08:08;16.15;;;9.48;;
63782;SDS011;49925;52.522;5.732;2022-08-11T05:13:49;21.05;;;9.02;;
63782;SDS011;49925;52.522;5.732;2022-08-11T05:16:52;17.13;;;8.85;;
63782;SDS011;49925;52.522;5.732;2022-08-11T05:19:45;18.17;;;9.32;;
63782;SDS011;49925;52.522;5.732;2022-08-11T05:22:32;24.95;;;9.98;;
63782;SDS011;49925;52.522;5.732;2022-08-11T05:25:28;20.50;;;9.48;;
63782;SDS011;49925;52.522;5.732;2022-08-11T05:51:36;22.10;;;10.20;;
63782;SDS011;49925;52.522;5.732;2022-08-11T05:54:41;21.98;;;10.55;;
63782;SDS011;49925;52.522;5.732;2022-08-11T05:57:32;22.92;;;9.77;;
63782;SDS011;49925;52.522;5.732;2022-08-11T06:00:16;18.42;;;10.35;;
63782;SDS011;49925;52.522;5.732;2022-08-11T06:02:49;24.40;;;10.15;;
63782;SDS011;49925;52.522;5.732;2022-08-11T06:05:22;19.63;;;9.60;;
63782;SDS011;49925;52.522;5.732;2022-08-11T06:07:52;17.38;;;10.38;;
63782;SDS011;49925;52.522;5.732;2022-08-11T06:10:24;19.48;;;10.43;;
63782;SDS011;49925;52.522;5.732;2022-08-11T06:13:03;21.75;;;10.32;;
63782;SDS011;49925;52.522;5.732;2022-08-11T06:15:33;22.52;;;11.10;;
63782;SDS011;49925;52.522;5.732;2022-08-11T06:18:12;20.00;;;10.77;;
63782;SDS011;49925;52.522;5.732;2022-08-11T06:20:46;25.23;;;10.18;;
63782;SDS011;49925;52.522;5.732;2022-08-11T06:23:15;25.92;;;11.25;;
63782;SDS011;49925;52.522;5.732;2022-08-11T06:25:49;20.52;;;11.57;;
63782;SDS011;49925;52.522;5.732;2022-08-11T06:28:28;26.08;;;10.88;;
63782;SDS011;49925;52.522;5.732;2022-08-11T06:30:58;22.15;;;9.98;;
63782;SDS011;49925;52.522;5.732;2022-08-11T06:33:30;18.92;;;10.05;;
63782;SDS011;49925;52.522;5.732;2022-08-11T06:36:09;28.13;;;11.23;;
63782;SDS011;49925;52.522;5.732;2022-08-11T06:38:55;23.27;;;9.95;;
63782;SDS011;49925;52.522;5.732;2022-08-11T06:41:51;18.67;;;10.35;;
63782;SDS011;49925;52.522;5.732;2022-08-11T06:44:31;19.20;;;9.90;;
63782;SDS011;49925;52.522;5.732;2022-08-11T06:50:16;18.50;;;9.27;;
63782;SDS011;49925;52.522;5.732;2022-08-11T06:53:05;18.00;;;9.18;;
63782;SDS011;49925;52.522;5.732;2022-08-11T06:58:29;14.52;;;8.32;;
63782;SDS011;49925;52.522;5.732;2022-08-11T07:01:19;16.45;;;8.65;;
63782;SDS011;49925;52.522;5.732;2022-08-11T07:44:26;10.02;;;5.45;;
63782;SDS011;49925;52.522;5.732;2022-08-11T07:47:00;22.02;;;5.60;;
63782;SDS011;49925;52.522;5.732;2022-08-11T07:49:47;9.70;;;5.13;;
63782;SDS011;49925;52.522;5.732;2022-08-11T07:52:33;16.55;;;4.93;;
63782;SDS011;49925;52.522;5.732;2022-08-11T07:55:10;14.38;;;5.32;;
63782;SDS011;49925;52.522;5.732;2022-08-11T10:59:08;18.08;;;4.05;;
63782;SDS011;49925;52.522;5.732;2022-08-11T11:01:40;12.02;;;3.80;;
63782;SDS011;49925;52.522;5.732;2022-08-11T11:04:13;11.13;;;3.50;;
63782;SDS011;49925;52.522;5.732;2022-08-11T11:09:43;12.23;;;3.70;;
63782;SDS011;49925;52.522;5.732;2022-08-11T11:12:24;11.57;;;4.00;;
63782;SDS011;49925;52.522;5.732;2022-08-11T11:15:21;7.72;;;3.50;;
63782;SDS011;49925;52.522;5.732;2022-08-11T11:18:08;8.15;;;3.50;;
63782;SDS011;49925;52.522;5.732;2022-08-11T11:20:58;13.98;;;3.38;;
63782;SDS011;49925;52.522;5.732;2022-08-11T11:23:32;13.10;;;3.83;;
63782;SDS011;49925;52.522;5.732;2022-08-11T11:29:39;12.43;;;3.53;;
63782;SDS011;49925;52.522;5.732;2022-08-11T11:38:02;9.35;;;3.65;;
63782;SDS011;49925;52.522;5.732;2022-08-11T11:40:39;7.70;;;3.45;;
63782;SDS011;49925;52.522;5.732;2022-08-11T18:45:09;14.18;;;3.50;;
63782;SDS011;49925;52.522;5.732;2022-08-11T21:04:09;15.82;;;4.00;;
63782;SDS011;49925;52.522;5.732;2022-08-11T21:44:15;10.18;;;4.07;;
63782;SDS011;49925;52.522;5.732;2022-08-11T21:47:01;20.20;;;4.50;;
63782;SDS011;49925;52.522;5.732;2022-08-11T21:50:08;15.95;;;4.40;;
63782;SDS011;49925;52.522;5.732;2022-08-11T21:52:55;8.77;;;4.32;;
63782;SDS011;49925;52.522;5.732;2022-08-11T21:55:42;10.50;;;4.88;;
63782;SDS011;49925;52.522;5.732;2022-08-11T22:04:00;11.45;;;5.45;;
63782;SDS011;49925;52.522;5.732;2022-08-11T22:06:46;11.32;;;5.07;;
63782;SDS011;49925;52.522;5.732;2022-08-11T22:09:32;14.57;;;5.05;;
63782;SDS011;49925;52.522;5.732;2022-08-11T22:12:18;15.63;;;5.38;;
63782;SDS011;49925;52.522;5.732;2022-08-11T22:17:56;19.17;;;5.63;;
63782;SDS011;49925;52.522;5.732;2022-08-11T22:54:19;19.75;;;5.55;;
63782;SDS011;49925;52.522;5.732;2022-08-11T22:57:06;10.70;;;5.53;;
63782;SDS011;49925;52.522;5.732;2022-08-11T22:59:52;12.90;;;4.85;;
63782;SDS011;49925;52.522;5.732;2022-08-11T23:02:38;11.73;;;4.90;;
63782;SDS011;49925;52.522;5.732;2022-08-11T23:05:25;9.55;;;4.80;;
63782;SDS011;49925;52.522;5.732;2022-08-11T23:08:11;15.00;;;5.20;;
